createdAt,value
2019-03-25T00:01:15.921Z,13.43
2019-03-25T00:03:48.316Z,13.38
2019-03-25T00:06:21.104Z,13.32
2019-03-25T00:09:05.039Z,13.78
2019-03-25T00:11:29.264Z,12.85
2019-03-25T00:14:02.040Z,12.18
2019-03-25T00:16:34.549Z,12.73
2019-03-25T00:19:06.897Z,12.98
2019-03-25T00:21:39.574Z,12.82
2019-03-25T00:24:11.851Z,13.28
2019-03-25T00:26:44.226Z,14.00
2019-03-25T00:29:16.565Z,13.93
2019-03-25T00:31:48.894Z,12.60
2019-03-25T00:34:21.127Z,12.40
2019-03-25T00:36:53.473Z,12.00
2019-03-25T00:39:25.744Z,12.53
2019-03-25T00:41:58.041Z,12.10
2019-03-25T00:44:30.350Z,10.28
2019-03-25T00:47:02.928Z,9.88
2019-03-25T00:49:35.463Z,11.10
2019-03-25T00:52:07.778Z,11.57
2019-03-25T00:54:49.539Z,10.82
2019-03-25T00:57:14.091Z,10.30
2019-03-25T00:59:48.922Z,11.00
2019-03-25T01:02:20.584Z,11.70
2019-03-25T01:04:52.863Z,10.65
2019-03-25T01:07:25.190Z,11.43
2019-03-25T01:09:57.495Z,10.32
2019-03-25T01:12:29.811Z,12.45
2019-03-25T01:15:02.069Z,13.05
2019-03-25T01:17:34.858Z,12.15
2019-03-25T01:20:08.357Z,12.23
2019-03-25T01:22:40.757Z,10.95
2019-03-25T01:25:13.068Z,11.20
2019-03-25T01:27:45.338Z,11.85
2019-03-25T01:30:17.658Z,10.20
2019-03-25T01:32:49.991Z,10.75
2019-03-25T01:35:22.306Z,11.22
2019-03-25T01:37:54.633Z,10.40
2019-03-25T01:40:26.911Z,11.28
2019-03-25T01:42:59.221Z,11.48
2019-03-25T01:45:31.487Z,12.95
2019-03-25T01:48:03.837Z,13.28
2019-03-25T01:50:36.725Z,13.22
2019-03-25T01:53:09.409Z,10.68
2019-03-25T01:55:41.702Z,12.60
2019-03-25T01:58:14.046Z,11.05
2019-03-25T02:00:46.341Z,10.80
2019-03-25T02:03:18.604Z,11.70
2019-03-25T02:05:50.909Z,11.43
2019-03-25T02:08:23.176Z,10.65
2019-03-25T02:10:55.714Z,10.20
2019-03-25T02:13:27.973Z,12.20
2019-03-25T02:16:00.659Z,12.55
2019-03-25T02:18:33.860Z,12.80
2019-03-25T02:21:07.409Z,11.73
2019-03-25T02:23:39.695Z,12.63
2019-03-25T02:26:11.997Z,12.10
2019-03-25T02:28:44.399Z,11.50
2019-03-25T02:31:16.714Z,11.85
2019-03-25T02:33:49.025Z,11.25
2019-03-25T02:36:21.427Z,12.05
2019-03-25T02:38:53.775Z,11.25
2019-03-25T02:41:26.097Z,12.05
2019-03-25T02:43:58.868Z,12.93
2019-03-25T02:46:31.138Z,10.80
2019-03-25T02:49:03.443Z,11.53
2019-03-25T02:51:35.743Z,10.72
2019-03-25T02:54:08.483Z,11.10
2019-03-25T02:56:40.764Z,10.25
2019-03-25T02:59:13.022Z,10.28
2019-03-25T03:01:45.322Z,10.55
2019-03-25T03:04:17.716Z,11.33
2019-03-25T03:06:49.994Z,9.88
2019-03-25T03:09:22.278Z,9.65
2019-03-25T03:11:54.580Z,10.05
2019-03-25T03:14:26.873Z,10.28
2019-03-25T03:17:00.691Z,9.10
2019-03-25T03:19:33.027Z,10.38
2019-03-25T03:22:06.725Z,10.32
2019-03-25T03:24:39.025Z,9.98
2019-03-25T03:27:11.805Z,9.60
2019-03-25T03:29:44.100Z,9.08
2019-03-25T03:32:16.356Z,9.95
2019-03-25T03:34:49.100Z,10.10
2019-03-25T03:37:21.406Z,9.73
2019-03-25T03:39:53.719Z,10.58
2019-03-25T03:42:26.150Z,10.53
2019-03-25T03:44:58.464Z,10.03
2019-03-25T03:47:30.798Z,10.20
2019-03-25T03:50:03.465Z,10.03
2019-03-25T03:52:36.497Z,9.70
2019-03-25T03:55:08.852Z,11.10
2019-03-25T03:57:41.226Z,9.65
2019-03-25T04:00:18.487Z,9.80
2019-03-25T04:02:50.754Z,9.95
2019-03-25T04:05:23.055Z,10.30
2019-03-25T04:07:55.427Z,9.75
2019-03-25T04:10:28.053Z,9.43
2019-03-25T04:13:00.675Z,10.78
2019-03-25T04:15:34.525Z,9.85
2019-03-25T04:18:07.317Z,10.48
2019-03-25T04:20:39.575Z,9.50
2019-03-25T04:23:11.889Z,10.05
2019-03-25T04:25:44.207Z,10.85
2019-03-25T04:28:16.564Z,11.22
2019-03-25T04:30:48.907Z,10.23
2019-03-25T04:33:21.166Z,10.18
2019-03-25T04:35:53.443Z,9.40
2019-03-25T04:38:25.761Z,9.28
2019-03-25T04:40:58.017Z,9.63
2019-03-25T04:43:30.321Z,9.33
2019-03-25T04:46:03.234Z,9.23
2019-03-25T04:48:35.545Z,9.60
2019-03-25T04:51:08.052Z,9.25
2019-03-25T04:53:40.804Z,9.83
2019-03-25T04:56:13.055Z,9.48
2019-03-25T04:58:45.483Z,9.90
2019-03-25T05:01:17.730Z,8.90
2019-03-25T05:03:50.054Z,10.00
2019-03-25T05:06:24.197Z,10.90
2019-03-25T05:08:56.493Z,9.90
2019-03-25T05:11:30.794Z,11.63
2019-03-25T05:14:04.177Z,10.40
2019-03-25T05:16:36.487Z,9.83
2019-03-25T05:19:08.734Z,9.23
2019-03-25T05:21:41.109Z,9.05
2019-03-25T05:24:13.441Z,8.98
2019-03-25T05:26:50.985Z,8.60
2019-03-25T05:29:19.688Z,6.85
2019-03-25T05:31:51.947Z,7.42
2019-03-25T05:34:24.252Z,7.40
2019-03-25T05:36:56.596Z,7.00
2019-03-25T05:39:28.873Z,8.25
2019-03-25T05:42:02.864Z,8.38
2019-03-25T05:44:35.164Z,8.43
2019-03-25T05:47:07.485Z,9.15
2019-03-25T05:49:39.773Z,8.43
2019-03-25T05:52:12.041Z,9.00
2019-03-25T05:54:44.285Z,8.53
2019-03-25T05:57:16.533Z,8.25
2019-03-25T05:59:48.805Z,8.78
2019-03-25T06:02:21.047Z,8.40
2019-03-25T06:04:53.316Z,8.30
2019-03-25T06:07:25.676Z,9.08
2019-03-25T06:09:57.939Z,9.15
2019-03-25T06:12:30.269Z,9.43
2019-03-25T06:15:04.805Z,8.58
2019-03-25T06:17:37.137Z,8.38
2019-03-25T06:20:09.453Z,9.03
2019-03-25T06:22:41.779Z,8.43
2019-03-25T06:25:14.030Z,8.58
2019-03-25T06:27:46.266Z,8.60
2019-03-25T06:30:18.591Z,7.90
2019-03-25T06:32:50.879Z,8.70
2019-03-25T06:35:23.169Z,8.28
2019-03-25T06:37:55.810Z,7.80
2019-03-25T06:40:28.101Z,7.40
2019-03-25T06:43:00.418Z,8.48
2019-03-25T06:45:33.877Z,7.42
2019-03-25T06:48:06.138Z,6.97
2019-03-25T06:50:38.449Z,7.22
2019-03-25T06:53:10.727Z,7.55
2019-03-25T06:55:43.038Z,8.08
2019-03-25T06:58:15.324Z,7.92
2019-03-25T07:00:47.573Z,6.97
2019-03-25T07:03:19.865Z,7.62
2019-03-25T07:05:52.116Z,7.75
2019-03-25T07:08:24.372Z,8.15
2019-03-25T07:10:57.075Z,8.35
2019-03-25T07:13:29.652Z,7.85
2019-03-25T07:16:02.324Z,7.90
2019-03-25T07:18:34.609Z,8.00
2019-03-25T07:21:06.859Z,8.05
2019-03-25T07:23:50.549Z,7.58
2019-03-25T07:26:22.798Z,7.67
2019-03-25T07:28:55.096Z,7.92
2019-03-25T07:31:27.354Z,8.20
2019-03-25T07:33:59.656Z,8.65
2019-03-25T07:36:31.967Z,8.68
2019-03-25T07:39:04.837Z,8.25
2019-03-25T07:41:38.732Z,7.95
2019-03-25T07:44:11.117Z,8.30
2019-03-25T07:46:43.409Z,8.90
2019-03-25T07:49:15.783Z,8.03
2019-03-25T07:51:48.043Z,9.18
2019-03-25T07:54:20.307Z,8.20
2019-03-25T07:56:52.717Z,8.43
2019-03-25T07:59:25.071Z,9.05
2019-03-25T08:01:57.836Z,9.45
2019-03-25T08:04:30.079Z,8.18
2019-03-25T08:07:04.301Z,8.18
2019-03-25T08:09:36.536Z,8.18
2019-03-25T08:12:09.011Z,7.47
2019-03-25T08:14:49.022Z,8.55
2019-03-25T08:17:21.398Z,7.15
2019-03-25T08:19:53.790Z,7.03
2019-03-25T08:22:26.046Z,7.08
2019-03-25T08:24:58.304Z,7.15
2019-03-25T08:27:30.555Z,7.10
2019-03-25T08:30:05.259Z,7.05
2019-03-25T08:32:37.573Z,7.05
2019-03-25T08:35:10.940Z,8.38
2019-03-25T08:37:43.229Z,7.62
2019-03-25T08:40:15.542Z,8.03
2019-03-25T08:42:47.807Z,7.85
2019-03-25T08:45:20.070Z,7.37
2019-03-25T08:47:52.417Z,7.37
2019-03-25T08:50:24.694Z,7.00
2019-03-25T08:52:56.934Z,7.65
2019-03-25T08:55:29.225Z,6.37
2019-03-25T08:58:11.558Z,6.60
2019-03-25T09:00:37.540Z,6.20
2019-03-25T09:03:10.989Z,5.78
2019-03-25T09:05:43.242Z,5.90
2019-03-25T09:08:15.602Z,5.20
2019-03-25T09:10:47.869Z,5.08
2019-03-25T09:13:20.141Z,5.30
2019-03-25T09:15:52.420Z,4.55
2019-03-25T09:18:24.667Z,5.58
2019-03-25T09:20:56.922Z,5.53
2019-03-25T09:23:29.174Z,4.62
2019-03-25T09:26:02.848Z,4.60
2019-03-25T09:28:36.299Z,4.87
2019-03-25T09:31:18.903Z,5.40
2019-03-25T09:33:51.204Z,3.83
2019-03-25T09:36:23.567Z,4.10
2019-03-25T09:38:55.815Z,3.95
2019-03-25T09:41:28.074Z,5.12
2019-03-25T09:44:00.335Z,4.72
2019-03-25T09:46:33.014Z,3.98
2019-03-25T09:49:05.984Z,4.25
2019-03-25T09:51:38.243Z,4.08
2019-03-25T09:54:10.552Z,4.50
2019-03-25T09:56:42.810Z,4.47
2019-03-25T09:59:16.562Z,4.15
2019-03-25T10:01:48.817Z,4.85
2019-03-25T10:04:21.130Z,4.97
2019-03-25T10:06:53.428Z,4.45
2019-03-25T10:09:25.793Z,4.83
2019-03-25T10:11:58.075Z,4.50
2019-03-25T10:14:30.351Z,4.00
2019-03-25T10:17:02.885Z,4.58
2019-03-25T10:19:35.127Z,4.85
2019-03-25T10:22:09.064Z,4.60
2019-03-25T10:24:41.360Z,4.33
2019-03-25T10:27:13.608Z,3.27
2019-03-25T10:29:46.406Z,3.92
2019-03-25T10:32:18.690Z,4.05
2019-03-25T10:34:50.956Z,4.67
2019-03-25T10:37:23.240Z,4.40
2019-03-25T10:39:55.509Z,4.28
2019-03-25T10:42:27.820Z,4.00
2019-03-25T10:45:02.053Z,4.15
2019-03-25T10:47:35.706Z,3.75
2019-03-25T10:50:08.047Z,3.37
2019-03-25T10:52:40.388Z,3.80
2019-03-25T10:55:12.654Z,3.77
2019-03-25T10:57:44.946Z,4.37
2019-03-25T11:00:17.280Z,4.08
2019-03-25T11:02:49.719Z,3.75
2019-03-25T11:05:22.349Z,4.17
2019-03-25T11:07:56.180Z,4.08
2019-03-25T11:10:28.483Z,4.17
2019-03-25T11:13:00.798Z,3.90
2019-03-25T11:15:33.122Z,3.95
2019-03-25T11:18:05.939Z,4.55
2019-03-25T11:20:38.265Z,4.30
2019-03-25T11:23:10.518Z,4.10
2019-03-25T11:25:43.082Z,4.08
2019-03-25T11:28:15.397Z,3.90
2019-03-25T11:30:52.294Z,3.85
2019-03-25T11:33:24.857Z,3.98
2019-03-25T11:35:57.179Z,4.35
2019-03-25T11:38:29.475Z,3.83
2019-03-25T11:41:03.457Z,3.62
2019-03-25T11:43:35.876Z,4.60
2019-03-25T11:46:08.159Z,3.65
2019-03-25T11:48:40.456Z,3.37
2019-03-25T11:51:12.765Z,3.70
2019-03-25T11:53:45.135Z,3.85
2019-03-25T11:56:17.406Z,3.72
2019-03-25T11:58:49.746Z,4.17
2019-03-25T12:01:22.089Z,3.02
2019-03-25T12:03:54.382Z,3.80
2019-03-25T12:06:26.660Z,3.98
2019-03-25T12:08:59.020Z,3.42
2019-03-25T12:11:31.417Z,3.60
2019-03-25T12:14:03.726Z,3.85
2019-03-25T12:16:35.996Z,4.37
2019-03-25T12:19:10.118Z,3.15
2019-03-25T12:21:42.439Z,4.08
2019-03-25T12:24:14.684Z,3.92
2019-03-25T12:26:47.016Z,3.35
2019-03-25T12:29:29.610Z,4.08
2019-03-25T12:31:54.245Z,3.50
2019-03-25T12:34:28.183Z,4.17
2019-03-25T12:37:00.648Z,4.00
2019-03-25T12:39:32.885Z,3.55
2019-03-25T12:42:05.786Z,3.98
2019-03-25T12:44:38.044Z,4.60
2019-03-25T12:47:10.390Z,3.47
2019-03-25T12:49:43.298Z,3.42
2019-03-25T12:52:15.604Z,3.52
2019-03-25T12:54:47.900Z,3.45
2019-03-25T12:57:20.164Z,3.92
2019-03-25T12:59:52.817Z,3.80
2019-03-25T13:02:25.060Z,3.52
2019-03-25T13:04:57.379Z,3.92
2019-03-25T13:07:29.778Z,3.90
2019-03-25T13:10:02.087Z,3.30
2019-03-25T13:12:34.462Z,4.03
2019-03-25T13:15:09.601Z,3.30
2019-03-25T13:17:41.888Z,3.85
2019-03-25T13:20:14.152Z,3.80
2019-03-25T13:22:46.446Z,3.40
2019-03-25T13:25:18.692Z,3.92
2019-03-25T13:27:51.010Z,3.33
2019-03-25T13:30:23.255Z,3.52
2019-03-25T13:32:55.664Z,3.50
2019-03-25T13:35:27.965Z,3.20
2019-03-25T13:38:00.268Z,3.35
2019-03-25T13:40:34.058Z,3.67
2019-03-25T13:43:06.342Z,3.42
2019-03-25T13:45:38.718Z,3.90
2019-03-25T13:48:11.540Z,3.50
2019-03-25T13:50:44.146Z,3.92
2019-03-25T13:53:16.493Z,3.25
2019-03-25T13:55:48.751Z,3.75
2019-03-25T13:58:21.034Z,3.50
2019-03-25T14:00:53.709Z,2.80
2019-03-25T14:03:26.084Z,3.60
2019-03-25T14:05:58.781Z,3.70
2019-03-25T14:08:32.032Z,3.72
2019-03-25T14:11:04.559Z,3.20
2019-03-25T14:13:37.048Z,3.35
2019-03-25T14:16:09.369Z,2.62
2019-03-25T14:18:41.621Z,2.98
2019-03-25T14:21:14.908Z,2.92
2019-03-25T14:23:47.146Z,3.27
2019-03-25T14:26:19.443Z,2.98
2019-03-25T14:28:51.684Z,3.08
2019-03-25T14:31:23.960Z,3.33
2019-03-25T14:33:56.247Z,3.83
2019-03-25T14:36:28.544Z,2.62
2019-03-25T14:39:00.809Z,2.85
2019-03-25T14:41:35.204Z,3.42
2019-03-25T14:44:07.436Z,2.80
2019-03-25T14:46:39.751Z,2.72
2019-03-25T14:49:13.409Z,2.95
2019-03-25T14:51:45.644Z,2.90
2019-03-25T14:54:19.738Z,2.62
2019-03-25T14:56:52.005Z,2.52
2019-03-25T14:59:24.277Z,2.98
2019-03-25T15:01:56.718Z,3.60
2019-03-25T15:04:28.963Z,2.75
2019-03-25T15:07:02.215Z,2.45
2019-03-25T15:09:34.479Z,2.98
2019-03-25T15:12:06.813Z,2.77
2019-03-25T15:14:40.619Z,2.72
2019-03-25T15:17:14.493Z,2.90
2019-03-25T15:19:48.881Z,3.05
2019-03-25T15:22:23.100Z,3.47
2019-03-25T15:24:55.879Z,2.75
2019-03-25T15:27:28.163Z,2.42
2019-03-25T15:30:00.393Z,2.92
2019-03-25T15:32:32.867Z,2.62
2019-03-25T15:35:05.712Z,2.35
2019-03-25T15:37:38.051Z,2.90
2019-03-25T15:40:11.096Z,2.60
2019-03-25T15:42:45.311Z,2.80
2019-03-25T15:45:22.385Z,2.87
2019-03-25T15:47:58.885Z,3.27
2019-03-25T15:50:34.358Z,2.70
2019-03-25T15:53:10.779Z,2.87
2019-03-25T15:55:45.441Z,3.12
2019-03-25T15:58:26.195Z,2.77
2019-03-25T16:00:55.732Z,2.50
2019-03-25T16:03:27.965Z,2.33
2019-03-25T16:06:00.207Z,2.52
2019-03-25T16:08:32.972Z,2.17
2019-03-25T16:11:06.213Z,2.58
2019-03-25T16:13:38.522Z,2.10
2019-03-25T16:16:10.769Z,2.55
2019-03-25T16:18:43.368Z,2.55
2019-03-25T16:21:15.660Z,2.10
2019-03-25T16:23:47.904Z,2.75
2019-03-25T16:26:20.187Z,2.42
2019-03-25T16:28:52.481Z,2.00
2019-03-25T16:31:24.860Z,2.83
2019-03-25T16:33:57.174Z,2.12
2019-03-25T16:36:29.508Z,2.02
2019-03-25T16:39:01.754Z,2.08
2019-03-25T16:41:35.567Z,2.92
2019-03-25T16:44:07.816Z,3.02
2019-03-25T16:46:40.090Z,2.47
2019-03-25T16:49:12.711Z,3.12
2019-03-25T16:51:44.946Z,3.77
2019-03-25T16:54:17.213Z,3.05
2019-03-25T16:56:49.486Z,2.92
2019-03-25T16:59:22.144Z,2.65
2019-03-25T17:01:54.386Z,2.30
2019-03-25T17:04:26.630Z,2.80
2019-03-25T17:06:58.862Z,3.40
2019-03-25T17:09:31.099Z,3.55
2019-03-25T17:12:03.375Z,3.00
2019-03-25T17:14:35.624Z,2.80
2019-03-25T17:17:07.877Z,3.30
2019-03-25T17:19:40.122Z,3.02
2019-03-25T17:22:12.360Z,2.90
2019-03-25T17:24:44.596Z,3.12
2019-03-25T17:27:16.902Z,2.83
2019-03-25T17:29:49.150Z,2.72
2019-03-25T17:32:21.469Z,3.25
2019-03-25T17:34:53.881Z,2.95
2019-03-25T17:37:26.107Z,2.87
2019-03-25T17:39:58.357Z,2.40
2019-03-25T17:42:31.820Z,2.45
2019-03-25T17:45:04.204Z,2.45
2019-03-25T17:47:36.460Z,2.80
2019-03-25T17:50:10.109Z,2.72
2019-03-25T17:52:42.359Z,2.80
2019-03-25T17:55:14.602Z,2.50
2019-03-25T17:57:46.914Z,2.70
2019-03-25T18:00:35.850Z,2.50
2019-03-25T18:03:12.272Z,2.22
2019-03-25T18:05:44.532Z,2.33
2019-03-25T18:08:16.779Z,2.30
2019-03-25T18:10:49.024Z,2.55
2019-03-25T18:13:22.645Z,2.33
2019-03-25T18:15:55.353Z,2.62
2019-03-25T18:18:27.572Z,2.77
2019-03-25T18:20:59.826Z,2.65
2019-03-25T18:23:34.962Z,3.15
2019-03-25T18:26:07.203Z,3.15
2019-03-25T18:28:39.725Z,3.85
2019-03-25T18:31:12.026Z,3.40
2019-03-25T18:33:44.270Z,3.05
2019-03-25T18:36:16.616Z,3.00
2019-03-25T18:38:48.884Z,3.00
2019-03-25T18:41:23.812Z,3.08
2019-03-25T18:43:56.253Z,2.25
2019-03-25T18:46:28.480Z,2.10
2019-03-25T18:49:00.713Z,2.33
2019-03-25T18:51:33.031Z,2.62
2019-03-25T18:54:05.345Z,2.05
2019-03-25T18:56:36.155Z,2.10
2019-03-25T18:59:10.443Z,2.50
2019-03-25T19:01:42.373Z,2.52
2019-03-25T19:04:14.641Z,2.80
2019-03-25T19:06:47.377Z,2.85
2019-03-25T19:09:19.632Z,2.87
2019-03-25T19:11:51.863Z,2.83
2019-03-25T19:14:24.104Z,15.70
2019-03-25T19:16:56.397Z,6.30
2019-03-25T19:19:29.671Z,13.85
2019-03-25T19:22:05.216Z,14.68
2019-03-25T19:24:37.215Z,4.97
2019-03-25T19:27:09.546Z,7.45
2019-03-25T19:29:41.826Z,5.25
2019-03-25T19:32:15.865Z,6.53
2019-03-25T19:34:48.100Z,9.38
2019-03-25T19:37:20.343Z,4.55
2019-03-25T19:39:53.743Z,4.37
2019-03-25T19:42:26.057Z,4.90
2019-03-25T19:44:58.407Z,3.33
2019-03-25T19:47:30.695Z,3.55
2019-03-25T19:50:03.293Z,3.65
2019-03-25T19:52:35.553Z,3.40
2019-03-25T19:55:07.816Z,3.30
2019-03-25T19:57:40.155Z,2.60
2019-03-25T20:00:12.398Z,2.92
2019-03-25T20:02:46.575Z,2.98
2019-03-25T20:05:19.266Z,2.50
2019-03-25T20:07:51.522Z,3.22
2019-03-25T20:10:30.958Z,2.72
2019-03-25T20:13:03.323Z,3.77
2019-03-25T20:15:45.516Z,2.87
2019-03-25T20:18:09.656Z,2.85
2019-03-25T20:20:41.929Z,3.10
2019-03-25T20:23:14.239Z,3.45
2019-03-25T20:25:46.491Z,3.15
2019-03-25T20:28:18.739Z,2.98
2019-03-25T20:30:51.026Z,2.60
2019-03-25T20:33:23.386Z,3.00
2019-03-25T20:35:55.769Z,2.62
2019-03-25T20:38:28.067Z,2.92
2019-03-25T20:41:00.407Z,2.52
2019-03-25T20:43:33.142Z,2.25
2019-03-25T20:46:05.481Z,2.75
2019-03-25T20:48:38.048Z,2.83
2019-03-25T20:51:12.233Z,2.37
2019-03-25T20:53:45.042Z,2.50
2019-03-25T20:56:17.436Z,2.15
2019-03-25T20:58:49.690Z,2.60
2019-03-25T21:01:22.427Z,2.17
2019-03-25T21:03:54.705Z,2.40
2019-03-25T21:06:28.158Z,2.85
2019-03-25T21:09:00.405Z,2.42
2019-03-25T21:11:34.231Z,2.62
2019-03-25T21:14:06.729Z,2.85
2019-03-25T21:16:41.284Z,3.15
2019-03-25T21:19:13.644Z,3.30
2019-03-25T21:21:45.967Z,3.70
2019-03-25T21:24:18.702Z,3.52
2019-03-25T21:26:52.121Z,4.00
2019-03-25T21:29:24.446Z,4.15
2019-03-25T21:31:57.334Z,3.67
2019-03-25T21:34:29.665Z,3.45
2019-03-25T21:37:02.075Z,4.30
2019-03-25T21:39:34.453Z,5.22
2019-03-25T21:42:07.193Z,5.37
2019-03-25T21:44:39.521Z,4.90
2019-03-25T21:47:11.849Z,5.37
2019-03-25T21:49:44.225Z,5.67
2019-03-25T21:52:16.619Z,4.75
2019-03-25T21:54:49.223Z,5.22
2019-03-25T21:57:21.493Z,4.55
2019-03-25T21:59:53.755Z,4.03
2019-03-25T22:02:26.013Z,3.80
2019-03-25T22:04:58.439Z,3.52
2019-03-25T22:07:30.679Z,4.28
2019-03-25T22:10:02.932Z,4.30
2019-03-25T22:12:36.492Z,4.17
2019-03-25T22:15:10.299Z,3.62
2019-03-25T22:17:43.848Z,4.08
2019-03-25T22:20:16.201Z,3.10
2019-03-25T22:22:48.446Z,3.35
2019-03-25T22:25:21.754Z,2.85
2019-03-25T22:27:54.071Z,2.95
2019-03-25T22:30:26.302Z,3.42
2019-03-25T22:32:58.588Z,2.87
2019-03-25T22:35:30.860Z,3.15
2019-03-25T22:38:03.113Z,3.33
2019-03-25T22:40:35.375Z,3.45
2019-03-25T22:43:07.620Z,3.22
2019-03-25T22:45:39.869Z,3.30
2019-03-25T22:48:12.159Z,3.30
2019-03-25T22:50:44.418Z,2.98
2019-03-25T22:53:16.677Z,3.58
2019-03-25T22:55:48.982Z,3.08
2019-03-25T22:58:21.218Z,3.27
2019-03-25T23:00:53.524Z,2.95
2019-03-25T23:03:38.183Z,3.02
2019-03-25T23:06:00.034Z,3.20
2019-03-25T23:08:32.388Z,3.25
2019-03-25T23:11:04.686Z,3.30
2019-03-25T23:13:37.020Z,2.83
2019-03-25T23:16:09.316Z,3.00
2019-03-25T23:18:42.635Z,2.87
2019-03-25T23:21:14.920Z,3.17
2019-03-25T23:23:47.188Z,3.27
2019-03-25T23:26:19.484Z,2.40
2019-03-25T23:28:51.737Z,2.70
2019-03-25T23:31:24.475Z,3.25
2019-03-25T23:33:56.755Z,2.67
2019-03-25T23:36:30.134Z,2.60
2019-03-25T23:39:02.970Z,2.35
2019-03-25T23:41:37.177Z,2.58
2019-03-25T23:44:09.483Z,2.30
2019-03-25T23:47:31.689Z,2.50
2019-03-25T23:50:04.384Z,2.00
2019-03-25T23:52:36.665Z,1.95
2019-03-25T23:55:09.296Z,2.10
2019-03-25T23:57:41.544Z,1.80
